< < Back
Terminal Aerodrome Forecast


Current Version              Previous Versions:   1  2  3  4  5  6  7  8  9  

Terminal Aerodrome Forecast

803
FTUS42 KGSP 262339
TAFGSP
TAF
KGSP 262339Z 2700/2724 00000KT P6SM FEW040 SCT050
     FM270400 00000KT P6SM BKN035
      TEMPO 2709/2712 4SM BR
     FM271200 03004KT P6SM SCT040 BKN050=

Latest METAR

283
SAUS70 KWBC 271300 RRK
MTRGSP
METAR KGSP 271253Z 00000KT 9SM FEW036 00/M01 A3028 RMK AO2 SLP259
T00001011


USA.gov is the U.S. government's official web portal to all federal, state and local government web resources and services.